createdAt,value
2017-12-27T00:01:58.420Z,3.37
2017-12-27T00:04:25.351Z,3.37
2017-12-27T00:06:52.285Z,3.60
2017-12-27T00:09:19.138Z,3.40
2017-12-27T00:11:45.977Z,2.80
2017-12-27T00:14:12.825Z,2.80
2017-12-27T00:16:39.670Z,3.60
2017-12-27T00:19:06.607Z,3.20
2017-12-27T00:21:33.461Z,3.57
2017-12-27T00:24:00.317Z,3.30
2017-12-27T00:26:27.289Z,2.90
2017-12-27T00:28:54.064Z,3.10
2017-12-27T00:31:21.298Z,3.00
2017-12-27T00:33:48.189Z,3.50
2017-12-27T00:36:15.128Z,4.00
2017-12-27T00:38:41.948Z,3.70
2017-12-27T00:41:09.190Z,3.73
2017-12-27T00:43:36.016Z,3.53
2017-12-27T00:46:02.848Z,3.23
2017-12-27T00:48:29.778Z,3.20
2017-12-27T00:50:56.709Z,3.90
2017-12-27T00:53:23.561Z,3.47
2017-12-27T00:55:50.400Z,4.10
2017-12-27T00:58:17.248Z,3.63
2017-12-27T01:00:44.188Z,3.30
2017-12-27T01:03:11.145Z,3.40
2017-12-27T01:05:37.968Z,3.90
2017-12-27T01:08:04.820Z,3.77
2017-12-27T01:10:31.669Z,3.53
2017-12-27T01:12:58.509Z,3.10
2017-12-27T01:15:25.356Z,3.77
2017-12-27T01:17:52.190Z,3.50
2017-12-27T01:20:19.054Z,4.03
2017-12-27T01:22:45.982Z,3.00
2017-12-27T01:25:12.828Z,3.33
2017-12-27T01:27:39.664Z,3.33
2017-12-27T01:30:06.522Z,2.97
2017-12-27T01:32:33.470Z,2.90
2017-12-27T01:35:00.314Z,3.00
2017-12-27T01:37:27.263Z,3.70
2017-12-27T01:39:54.095Z,4.00
2017-12-27T01:42:20.965Z,4.20
2017-12-27T01:44:47.893Z,4.00
2017-12-27T01:47:14.838Z,3.63
2017-12-27T01:49:41.788Z,4.00
2017-12-27T01:52:08.642Z,3.67
2017-12-27T01:54:35.468Z,3.37
2017-12-27T01:57:02.316Z,3.50
2017-12-27T01:59:29.166Z,4.20
2017-12-27T02:01:55.998Z,3.17
2017-12-27T02:04:22.848Z,3.50
2017-12-27T02:06:49.692Z,3.33
2017-12-27T02:09:16.545Z,3.30
2017-12-27T02:11:43.380Z,2.70
2017-12-27T02:14:10.216Z,3.20
2017-12-27T02:16:37.076Z,3.73
2017-12-27T02:19:04.013Z,3.90
2017-12-27T02:21:30.832Z,3.90
2017-12-27T02:23:58.058Z,3.20
2017-12-27T02:26:24.955Z,3.83
2017-12-27T02:28:51.787Z,3.40
2017-12-27T02:31:19.066Z,3.37
2017-12-27T02:33:45.896Z,3.43
2017-12-27T02:36:12.733Z,3.90
2017-12-27T02:38:51.460Z,3.37
2017-12-27T02:41:18.317Z,3.43
2017-12-27T02:43:45.150Z,3.47
2017-12-27T02:46:11.990Z,3.43
2017-12-27T02:48:38.844Z,3.10
2017-12-27T02:51:05.680Z,2.83
2017-12-27T02:53:32.530Z,2.97
2017-12-27T02:55:59.349Z,3.13
2017-12-27T02:58:26.572Z,3.40
2017-12-27T03:00:53.472Z,3.20
2017-12-27T03:03:20.307Z,2.50
2017-12-27T03:05:47.165Z,2.43
2017-12-27T03:08:13.990Z,3.63
2017-12-27T03:10:41.238Z,2.43
2017-12-27T03:13:08.515Z,2.90
2017-12-27T03:15:35.356Z,4.00
2017-12-27T03:18:02.302Z,3.00
2017-12-27T03:20:29.158Z,3.20
2017-12-27T03:22:55.988Z,2.60
2017-12-27T03:25:22.836Z,3.00
2017-12-27T03:27:49.687Z,2.50
2017-12-27T03:30:16.530Z,3.03
2017-12-27T03:32:43.360Z,2.70
2017-12-27T03:35:10.212Z,2.20
2017-12-27T03:37:37.148Z,2.70
2017-12-27T03:40:03.980Z,2.50
2017-12-27T03:42:31.251Z,2.60
2017-12-27T03:44:58.072Z,2.80
2017-12-27T03:47:25.353Z,2.20
2017-12-27T03:49:52.174Z,2.57
2017-12-27T03:52:19.417Z,2.70
2017-12-27T03:54:46.708Z,2.40
2017-12-27T03:57:13.549Z,2.43
2017-12-27T03:59:40.377Z,2.33
2017-12-27T04:02:07.217Z,2.47
2017-12-27T04:04:34.590Z,1.90
2017-12-27T04:07:01.440Z,2.20
2017-12-27T04:12:14.439Z,2.30
2017-12-27T04:14:41.277Z,2.20
2017-12-27T04:17:08.174Z,2.00
2017-12-27T04:19:35.022Z,1.80
2017-12-27T04:22:01.854Z,2.43
2017-12-27T04:24:28.711Z,2.50
2017-12-27T04:26:55.550Z,2.83
2017-12-27T04:29:22.498Z,2.60
2017-12-27T04:31:49.439Z,2.00
2017-12-27T04:34:16.385Z,1.90
2017-12-27T04:36:43.234Z,1.60
2017-12-27T04:39:10.187Z,1.63
2017-12-27T04:41:37.013Z,7.67
2017-12-27T04:44:03.861Z,1.60
2017-12-27T04:46:30.708Z,1.50
2017-12-27T04:48:57.542Z,1.47
2017-12-27T04:51:24.398Z,1.20
2017-12-27T04:53:51.237Z,2.40
2017-12-27T04:56:18.086Z,2.60
2017-12-27T04:58:45.037Z,1.90
2017-12-27T05:01:11.990Z,1.90
2017-12-27T05:03:38.821Z,1.83
2017-12-27T05:06:05.693Z,2.10
2017-12-27T05:08:32.509Z,2.27
2017-12-27T05:10:59.471Z,1.90
2017-12-27T05:13:26.306Z,1.90
2017-12-27T05:15:53.255Z,1.70
2017-12-27T05:18:20.099Z,1.90
2017-12-27T05:20:46.942Z,1.57
2017-12-27T05:23:13.990Z,1.60
2017-12-27T05:25:40.831Z,1.90
2017-12-27T05:28:07.669Z,1.97
2017-12-27T05:30:34.630Z,1.83
2017-12-27T05:33:01.454Z,1.60
2017-12-27T05:35:28.316Z,1.87
2017-12-27T05:37:55.253Z,2.30
2017-12-27T05:40:22.106Z,2.53
2017-12-27T05:42:48.933Z,2.03
2017-12-27T05:45:15.779Z,2.17
2017-12-27T05:47:42.629Z,2.13
2017-12-27T05:50:09.481Z,2.07
2017-12-27T05:52:36.413Z,2.13
2017-12-27T05:55:03.276Z,2.20
2017-12-27T05:57:30.119Z,2.40
2017-12-27T05:59:56.950Z,2.30
2017-12-27T06:02:23.784Z,2.10
2017-12-27T06:04:50.640Z,2.33
2017-12-27T06:07:17.486Z,2.40
2017-12-27T06:09:44.311Z,2.40
2017-12-27T06:12:11.156Z,2.70
2017-12-27T06:14:38.433Z,2.77
2017-12-27T06:17:05.269Z,2.97
2017-12-27T06:19:32.116Z,3.00
2017-12-27T06:21:59.006Z,2.57
2017-12-27T06:24:25.834Z,2.77
2017-12-27T06:26:52.763Z,2.77
2017-12-27T06:29:19.605Z,2.90
2017-12-27T06:31:46.434Z,3.40
2017-12-27T06:34:13.294Z,2.87
2017-12-27T06:36:40.123Z,2.97
2017-12-27T06:39:06.949Z,3.40
2017-12-27T06:41:33.825Z,3.57
2017-12-27T06:44:00.655Z,3.63
2017-12-27T06:46:27.503Z,3.53
2017-12-27T06:48:54.350Z,3.10
2017-12-27T06:51:21.238Z,3.47
2017-12-27T06:53:48.158Z,3.90
2017-12-27T06:56:14.999Z,4.37
2017-12-27T06:58:41.930Z,3.57
2017-12-27T07:01:08.874Z,4.03
2017-12-27T07:03:35.741Z,3.50
2017-12-27T07:06:02.570Z,4.07
2017-12-27T07:08:29.422Z,4.07
2017-12-27T07:10:56.349Z,4.07
2017-12-27T07:13:23.193Z,3.37
2017-12-27T07:15:50.019Z,4.33
2017-12-27T07:18:16.883Z,5.00
2017-12-27T07:20:43.725Z,4.00
2017-12-27T07:23:10.569Z,4.07
2017-12-27T07:25:37.419Z,4.37
2017-12-27T07:28:04.381Z,4.33
2017-12-27T07:30:31.311Z,4.80
2017-12-27T07:32:58.159Z,4.63
2017-12-27T07:35:24.990Z,3.97
2017-12-27T07:37:51.949Z,4.17
2017-12-27T07:40:18.789Z,4.60
2017-12-27T07:42:45.638Z,4.40
2017-12-27T07:45:12.482Z,4.20
2017-12-27T07:47:39.308Z,3.93
2017-12-27T07:50:06.162Z,4.77
2017-12-27T07:52:33.019Z,4.00
2017-12-27T07:54:59.868Z,4.27
2017-12-27T07:57:26.781Z,4.70
2017-12-27T07:59:53.637Z,4.60
2017-12-27T08:02:20.596Z,3.70
2017-12-27T08:04:47.447Z,4.70
2017-12-27T08:07:14.387Z,4.30
2017-12-27T08:09:41.331Z,5.07
2017-12-27T08:12:08.172Z,4.57
2017-12-27T08:14:35.019Z,4.40
2017-12-27T08:17:01.853Z,4.10
2017-12-27T08:19:28.811Z,4.47
2017-12-27T08:21:55.645Z,3.57
2017-12-27T08:24:22.499Z,4.97
2017-12-27T08:26:49.338Z,4.10
2017-12-27T08:29:16.177Z,4.67
2017-12-27T08:31:43.127Z,4.20
2017-12-27T08:34:09.977Z,4.20
2017-12-27T08:36:36.793Z,4.27
2017-12-27T08:39:03.649Z,4.33
2017-12-27T08:41:30.509Z,4.70
2017-12-27T08:43:57.339Z,4.43
2017-12-27T08:46:24.189Z,4.57
2017-12-27T08:48:51.038Z,3.60
2017-12-27T08:51:17.995Z,3.80
2017-12-27T08:53:44.915Z,4.20
2017-12-27T08:56:11.747Z,4.03
2017-12-27T08:58:39.035Z,3.97
2017-12-27T09:01:05.979Z,3.70
2017-12-27T09:03:32.813Z,3.70
2017-12-27T09:05:59.756Z,4.07
2017-12-27T09:08:26.700Z,3.33
2017-12-27T09:10:53.553Z,3.40
2017-12-27T09:13:20.397Z,3.90
2017-12-27T09:15:47.233Z,3.93
2017-12-27T09:18:14.081Z,4.20
2017-12-27T09:20:40.925Z,3.50
2017-12-27T09:23:07.749Z,3.40
2017-12-27T09:25:35.025Z,3.80
2017-12-27T09:28:01.979Z,4.00
2017-12-27T09:30:28.830Z,4.17
2017-12-27T09:32:55.756Z,3.70
2017-12-27T09:35:22.607Z,3.57
2017-12-27T09:37:49.449Z,4.30
2017-12-27T09:40:16.296Z,3.80
2017-12-27T09:42:43.133Z,3.50
2017-12-27T09:45:09.986Z,3.90
2017-12-27T09:47:36.929Z,3.50
2017-12-27T09:50:03.764Z,3.47
2017-12-27T09:52:30.629Z,3.73
2017-12-27T09:54:57.479Z,3.90
2017-12-27T09:57:24.405Z,3.97
2017-12-27T09:59:51.250Z,4.50
2017-12-27T10:02:18.104Z,4.13
2017-12-27T10:04:44.942Z,4.10
2017-12-27T10:07:11.881Z,3.97
2017-12-27T10:09:38.755Z,3.97
2017-12-27T10:12:05.678Z,4.10
2017-12-27T10:14:32.522Z,4.30
2017-12-27T10:16:59.363Z,4.40
2017-12-27T10:19:26.227Z,5.13
2017-12-27T10:21:53.869Z,4.57
2017-12-27T10:24:20.818Z,4.50
2017-12-27T10:26:47.651Z,5.17
2017-12-27T10:29:14.509Z,5.00
2017-12-27T10:31:41.354Z,4.53
2017-12-27T10:34:08.325Z,4.80
2017-12-27T10:36:35.158Z,4.63
2017-12-27T10:39:02.088Z,4.70
2017-12-27T10:41:28.926Z,4.43
2017-12-27T10:43:55.775Z,4.77
2017-12-27T10:46:22.625Z,4.20
2017-12-27T10:48:49.575Z,4.53
2017-12-27T10:51:16.415Z,4.43
2017-12-27T10:53:43.354Z,3.90
2017-12-27T10:56:10.180Z,4.80
2017-12-27T10:58:37.458Z,4.47
2017-12-27T11:01:04.297Z,4.70
2017-12-27T11:03:31.145Z,4.70
2017-12-27T11:05:58.087Z,4.10
2017-12-27T11:08:24.933Z,2.90
2017-12-27T11:10:51.781Z,4.30
2017-12-27T11:13:18.605Z,3.80
2017-12-27T11:15:45.466Z,4.07
2017-12-27T11:18:12.408Z,4.30
2017-12-27T11:20:39.239Z,4.00
2017-12-27T11:23:06.103Z,4.43
2017-12-27T11:25:32.933Z,4.43
2017-12-27T11:27:59.795Z,4.50
2017-12-27T11:30:27.456Z,4.20
2017-12-27T11:32:54.290Z,5.30
2017-12-27T11:35:21.144Z,3.70
2017-12-27T11:37:47.993Z,3.63
2017-12-27T11:40:14.841Z,4.33
2017-12-27T11:42:41.665Z,3.20
2017-12-27T11:45:08.525Z,3.17
2017-12-27T11:47:35.469Z,3.53
2017-12-27T11:50:02.307Z,3.10
2017-12-27T11:52:29.140Z,3.43
2017-12-27T11:54:55.998Z,3.90
2017-12-27T11:57:22.813Z,3.30
2017-12-27T11:59:50.031Z,3.50
2017-12-27T12:02:16.937Z,4.17
2017-12-27T12:04:43.772Z,4.10
2017-12-27T12:07:10.591Z,3.97
2017-12-27T12:09:37.826Z,4.47
2017-12-27T12:12:04.745Z,4.47
2017-12-27T12:14:31.605Z,4.00
2017-12-27T12:16:58.514Z,3.33
2017-12-27T12:19:25.363Z,3.90
2017-12-27T12:21:52.220Z,3.73
2017-12-27T12:24:19.046Z,3.50
2017-12-27T12:26:45.882Z,3.80
2017-12-27T12:29:12.725Z,3.77
2017-12-27T12:31:39.577Z,4.30
2017-12-27T12:34:06.425Z,4.40
2017-12-27T12:36:33.371Z,4.17
2017-12-27T12:39:00.205Z,4.40
2017-12-27T12:41:27.175Z,4.10
2017-12-27T12:43:54.118Z,4.10
2017-12-27T12:46:20.949Z,3.30
2017-12-27T12:48:47.811Z,3.90
2017-12-27T12:51:14.738Z,4.20
2017-12-27T12:53:41.693Z,3.80
2017-12-27T12:56:08.528Z,4.70
2017-12-27T12:58:35.404Z,4.30
2017-12-27T13:01:02.314Z,4.07
2017-12-27T13:03:29.150Z,3.97
2017-12-27T13:05:55.983Z,4.23
2017-12-27T13:08:23.213Z,4.17
2017-12-27T13:10:50.058Z,4.00
2017-12-27T13:13:16.953Z,3.93
2017-12-27T13:15:43.894Z,4.20
2017-12-27T13:18:10.832Z,4.90
2017-12-27T13:20:37.649Z,4.33
2017-12-27T13:23:04.933Z,4.43
2017-12-27T13:25:31.894Z,4.40
2017-12-27T13:27:58.695Z,4.40
2017-12-27T13:30:26.095Z,3.87
2017-12-27T13:32:52.928Z,5.53
2017-12-27T13:35:19.869Z,5.27
2017-12-27T13:37:46.766Z,4.90
2017-12-27T13:40:13.681Z,3.50
2017-12-27T13:42:40.527Z,4.53
2017-12-27T13:45:07.458Z,4.50
2017-12-27T13:47:34.312Z,4.80
2017-12-27T13:50:01.260Z,4.20
2017-12-27T13:52:28.061Z,4.47
2017-12-27T13:54:55.346Z,3.77
2017-12-27T13:57:22.198Z,4.20
2017-12-27T13:59:49.039Z,3.90
2017-12-27T14:02:15.882Z,4.23
2017-12-27T14:04:42.717Z,4.33
2017-12-27T14:07:09.671Z,4.60
2017-12-27T14:09:36.522Z,3.80
2017-12-27T14:12:03.465Z,3.80
2017-12-27T14:14:30.413Z,3.27
2017-12-27T14:16:57.243Z,3.80
2017-12-27T14:19:24.085Z,3.80
2017-12-27T14:21:50.947Z,3.57
2017-12-27T14:24:17.802Z,3.50
2017-12-27T14:26:44.733Z,3.53
2017-12-27T14:29:11.569Z,4.00
2017-12-27T14:31:38.533Z,5.00
2017-12-27T14:34:05.460Z,4.90
2017-12-27T14:36:32.305Z,4.30
2017-12-27T14:38:59.175Z,3.73
2017-12-27T14:41:26.007Z,3.87
2017-12-27T14:43:52.951Z,3.70
2017-12-27T14:46:19.793Z,3.80
2017-12-27T14:48:46.647Z,4.10
2017-12-27T14:51:13.570Z,4.27
2017-12-27T14:53:40.413Z,3.93
2017-12-27T14:56:07.310Z,3.67
2017-12-27T14:58:34.212Z,3.50
2017-12-27T15:01:01.070Z,4.20
2017-12-27T15:03:28.011Z,3.97
2017-12-27T15:05:54.843Z,3.57
2017-12-27T15:08:21.682Z,4.20
2017-12-27T15:10:48.505Z,3.87
2017-12-27T15:13:15.846Z,3.90
2017-12-27T15:15:43.153Z,4.17
2017-12-27T15:18:10.026Z,4.47
2017-12-27T15:20:37.045Z,4.50
2017-12-27T15:23:03.973Z,4.93
2017-12-27T15:25:30.929Z,6.23
2017-12-27T15:27:57.771Z,5.50
2017-12-27T15:30:24.593Z,5.23
2017-12-27T15:32:51.837Z,5.73
2017-12-27T15:35:19.076Z,6.37
2017-12-27T15:37:45.931Z,5.37
2017-12-27T15:40:13.221Z,5.90
2017-12-27T15:42:40.161Z,5.83
2017-12-27T15:45:07.057Z,6.30
2017-12-27T15:47:33.924Z,6.20
2017-12-27T15:50:01.244Z,5.80
2017-12-27T15:52:28.170Z,6.10
2017-12-27T15:54:55.237Z,6.20
2017-12-27T15:57:22.155Z,5.80
2017-12-27T15:59:49.008Z,6.30
2017-12-27T16:02:15.829Z,6.17
2017-12-27T16:04:42.799Z,5.17
2017-12-27T16:07:09.634Z,5.73
2017-12-27T16:09:36.489Z,6.10
2017-12-27T16:12:03.327Z,6.17
2017-12-27T16:14:30.183Z,6.30
2017-12-27T16:16:57.019Z,6.37
2017-12-27T16:19:23.954Z,6.80
2017-12-27T16:21:50.813Z,7.07
2017-12-27T16:24:17.861Z,7.57
2017-12-27T16:26:44.696Z,6.60
2017-12-27T16:29:11.752Z,6.73
2017-12-27T16:31:38.583Z,6.97
2017-12-27T16:34:05.413Z,6.97
2017-12-27T16:36:32.285Z,7.43
2017-12-27T16:38:59.082Z,7.67
2017-12-27T16:41:26.313Z,6.93
2017-12-27T16:43:53.212Z,7.10
2017-12-27T16:46:20.101Z,7.40
2017-12-27T16:48:47.001Z,7.53
2017-12-27T16:51:13.830Z,7.00
2017-12-27T16:53:40.822Z,7.57
2017-12-27T16:56:07.665Z,7.67
2017-12-27T16:58:34.592Z,6.50
2017-12-27T17:01:01.448Z,6.60
2017-12-27T17:03:28.279Z,6.60
2017-12-27T17:05:55.218Z,6.70
2017-12-27T17:08:22.176Z,7.20
2017-12-27T17:10:49.176Z,6.77
2017-12-27T17:13:16.478Z,6.50
2017-12-27T17:15:43.312Z,7.53
2017-12-27T17:18:10.264Z,7.23
2017-12-27T17:20:37.085Z,8.10
2017-12-27T17:23:03.950Z,6.93
2017-12-27T17:25:30.793Z,8.33
2017-12-27T17:27:57.647Z,7.67
2017-12-27T17:30:24.608Z,8.03
2017-12-27T17:32:51.429Z,8.47
2017-12-27T17:35:18.374Z,8.60
2017-12-27T17:37:45.225Z,8.27
2017-12-27T17:40:12.069Z,8.20
2017-12-27T17:42:38.889Z,7.63
2017-12-27T17:45:05.751Z,8.37
2017-12-27T17:47:32.693Z,8.47
2017-12-27T17:49:59.523Z,8.87
2017-12-27T17:52:26.387Z,9.13
2017-12-27T17:54:53.451Z,8.23
2017-12-27T17:57:20.390Z,8.90
2017-12-27T17:59:47.235Z,8.57
2017-12-27T18:02:14.071Z,7.97
2017-12-27T18:04:41.126Z,10.03
2017-12-27T18:07:07.961Z,9.30
2017-12-27T18:09:34.822Z,10.13
2017-12-27T18:12:01.650Z,8.17
2017-12-27T18:14:28.603Z,8.50
2017-12-27T18:16:55.433Z,9.27
2017-12-27T18:19:22.419Z,10.13
2017-12-27T18:21:49.338Z,9.10
2017-12-27T18:24:16.190Z,7.83
2017-12-27T18:26:43.030Z,8.60
2017-12-27T18:29:09.887Z,9.43
2017-12-27T18:31:36.735Z,8.53
2017-12-27T18:34:03.566Z,10.60
2017-12-27T18:36:30.418Z,10.20
2017-12-27T18:38:57.295Z,9.60
2017-12-27T18:41:24.253Z,11.03
2017-12-27T18:43:51.555Z,11.60
2017-12-27T18:46:18.519Z,9.63
2017-12-27T18:48:45.561Z,10.30
2017-12-27T18:51:12.513Z,10.60
2017-12-27T18:53:39.325Z,10.10
2017-12-27T18:56:06.164Z,9.77
2017-12-27T18:58:33.010Z,10.60
2017-12-27T19:01:00.353Z,9.97
2017-12-27T19:03:27.621Z,10.17
2017-12-27T19:05:54.966Z,15.80
2017-12-27T19:08:22.262Z,12.53
2017-12-27T19:10:49.111Z,13.00
2017-12-27T19:13:16.042Z,12.93
2017-12-27T19:15:42.907Z,11.70
2017-12-27T19:18:09.956Z,12.57
2017-12-27T19:20:36.820Z,10.07
2017-12-27T19:23:03.728Z,11.17
2017-12-27T19:25:30.579Z,10.73
2017-12-27T19:27:57.520Z,11.07
2017-12-27T19:30:24.577Z,11.00
2017-12-27T19:32:51.456Z,12.23
2017-12-27T19:35:18.297Z,10.30
2017-12-27T19:37:45.210Z,10.50
2017-12-27T19:40:12.063Z,12.43
2017-12-27T19:42:39.003Z,11.50
2017-12-27T19:45:05.837Z,11.73
2017-12-27T19:47:32.683Z,12.10
2017-12-27T19:49:59.525Z,12.07
2017-12-27T19:52:26.394Z,14.97
2017-12-27T19:54:53.250Z,18.60
2017-12-27T19:57:20.087Z,24.60
2017-12-27T19:59:46.934Z,18.20
2017-12-27T20:02:13.766Z,18.03
2017-12-27T20:04:40.769Z,16.90
2017-12-27T20:07:08.068Z,17.13
2017-12-27T20:09:34.925Z,20.07
2017-12-27T20:12:01.842Z,17.47
2017-12-27T20:14:28.665Z,16.27
2017-12-27T20:16:55.979Z,16.37
2017-12-27T20:19:22.818Z,16.73
2017-12-27T20:21:49.829Z,14.63
2017-12-27T20:24:16.686Z,16.27
2017-12-27T20:26:43.540Z,14.83
2017-12-27T20:29:10.486Z,13.53
2017-12-27T20:31:37.421Z,12.83
2017-12-27T20:34:04.272Z,12.37
2017-12-27T20:36:31.114Z,11.93
2017-12-27T20:38:58.058Z,10.47
2017-12-27T20:41:25.007Z,13.10
2017-12-27T20:43:51.846Z,13.03
2017-12-27T20:46:18.686Z,12.37
2017-12-27T20:48:45.690Z,12.00
2017-12-27T20:51:12.505Z,12.40
2017-12-27T20:53:39.439Z,11.73
2017-12-27T20:56:06.374Z,12.33
2017-12-27T20:58:33.226Z,10.20
2017-12-27T21:01:00.066Z,11.80
2017-12-27T21:03:26.910Z,10.20
2017-12-27T21:05:53.809Z,10.40
2017-12-27T21:08:21.118Z,11.03
2017-12-27T21:10:48.059Z,12.43
2017-12-27T21:13:14.930Z,13.10
2017-12-27T21:15:41.801Z,10.40
2017-12-27T21:18:08.742Z,11.40
2017-12-27T21:20:35.795Z,11.13
2017-12-27T21:23:02.661Z,10.60
2017-12-27T21:25:30.058Z,9.93
2017-12-27T21:27:56.938Z,10.27
2017-12-27T21:30:23.775Z,11.50
2017-12-27T21:32:50.677Z,10.03
2017-12-27T21:35:17.633Z,9.87
2017-12-27T21:37:44.478Z,10.67
2017-12-27T21:40:11.706Z,9.90
2017-12-27T21:42:38.533Z,11.17
2017-12-27T21:45:05.822Z,10.53
2017-12-27T21:47:32.674Z,10.23
2017-12-27T21:49:59.492Z,9.87
2017-12-27T21:52:26.365Z,11.20
2017-12-27T21:54:53.231Z,12.17
2017-12-27T21:57:20.090Z,9.73
2017-12-27T21:59:46.921Z,10.37
2017-12-27T22:02:13.791Z,10.13
2017-12-27T22:04:41.026Z,11.47
2017-12-27T22:07:07.889Z,10.93
2017-12-27T22:09:35.188Z,8.10
2017-12-27T22:12:02.685Z,7.40
2017-12-27T22:14:29.497Z,9.70
2017-12-27T22:16:56.425Z,6.37
2017-12-27T22:19:23.265Z,4.77
2017-12-27T22:21:50.227Z,3.03
2017-12-27T22:24:17.068Z,3.50
2017-12-27T22:26:43.915Z,3.60
2017-12-27T22:29:10.763Z,3.83
2017-12-27T22:31:37.689Z,3.47
2017-12-27T22:34:04.546Z,3.97
2017-12-27T22:36:31.385Z,4.00
2017-12-27T22:38:58.334Z,3.90
2017-12-27T22:41:25.244Z,3.70
2017-12-27T22:43:52.534Z,3.60
2017-12-27T22:46:19.388Z,4.23
2017-12-27T22:48:46.327Z,3.20
2017-12-27T22:51:13.175Z,3.50
2017-12-27T22:53:40.119Z,3.63
2017-12-27T22:56:06.941Z,3.17
2017-12-27T22:58:33.794Z,3.50
2017-12-27T23:01:00.656Z,4.60
2017-12-27T23:03:27.481Z,4.00
2017-12-27T23:05:54.334Z,3.57
2017-12-27T23:08:21.170Z,3.50
2017-12-27T23:10:48.034Z,3.80
2017-12-27T23:13:14.869Z,4.20
2017-12-27T23:15:41.710Z,3.80
2017-12-27T23:18:08.650Z,4.23
2017-12-27T23:20:35.493Z,4.40
2017-12-27T23:23:02.379Z,4.07
2017-12-27T23:25:29.285Z,4.00
2017-12-27T23:27:56.144Z,3.97
2017-12-27T23:30:23.073Z,4.10
2017-12-27T23:32:49.926Z,4.27
2017-12-27T23:35:16.765Z,4.57
2017-12-27T23:37:43.605Z,4.00
2017-12-27T23:40:10.458Z,4.50
2017-12-27T23:42:37.407Z,5.13
2017-12-27T23:45:04.229Z,4.67
2017-12-27T23:47:31.098Z,4.03
2017-12-27T23:49:57.936Z,4.83
2017-12-27T23:52:24.781Z,4.17
2017-12-27T23:54:51.733Z,4.17
2017-12-27T23:57:18.573Z,4.37
2017-12-27T23:59:45.517Z,4.30
